Time;durP1;ratioP1;P1;durP2;ratioP2;P2;SDS_P1;SDS_P2;PMS_P1;PMS_P2;Temp;Humidity;BMP_temperature;BMP_pressure;BME280_temperature;BME280_humidity;BME280_pressure;Samples;Min_cycle;Max_cycle;Signal;HPM_P1;HPM_P2
2022/06/20 00:00:11;;;;;;;13.32;10.25;;;;;;;22.53;96.78;100846.84;1651615;85;21542;-73
2022/06/20 00:02:43;;;;;;;15.05;10.55;;;;;;;22.68;96.94;100843.31;1649330;86;21058;-73
2022/06/20 00:05:15;;;;;;;14.60;10.00;;;;;;;22.64;96.21;100841.93;1645977;86;21054;-72
2022/06/20 00:07:43;;;;;;;14.10;10.50;;;;;;;22.57;94.96;100844.28;1650801;86;21114;-72
2022/06/20 00:10:13;;;;;;;14.60;10.60;;;;;;;22.66;93.79;100840.00;1646939;86;21047;-73
2022/06/20 00:12:42;;;;;;;18.67;11.30;;;;;;;22.65;93.46;100836.19;1653657;85;21091;-73
2022/06/20 00:15:22;;;;;;;15.15;11.15;;;;;;;22.67;93.24;100836.42;1651126;85;21091;-73
2022/06/20 00:17:52;;;;;;;16.45;12.05;;;;;;;22.53;94.22;100836.83;1639006;85;21130;-73
2022/06/20 00:20:19;;;;;;;14.10;11.57;;;;;;;22.26;96.24;100833.55;1648944;85;21059;-72
2022/06/20 00:22:48;;;;;;;18.17;10.93;;;;;;;22.23;97.18;100832.48;1648719;85;21083;-73
2022/06/20 00:25:19;;;;;;;15.18;11.20;;;;;;;22.43;96.67;100828.12;1658416;84;21475;-72
2022/06/20 00:27:47;;;;;;;18.95;11.88;;;;;;;22.50;95.09;100834.47;1649303;85;21139;-72
2022/06/20 00:30:17;;;;;;;19.62;11.63;;;;;;;22.38;95.45;100829.83;1647516;85;21061;-72
2022/06/20 00:32:44;;;;;;;15.03;10.60;;;;;;;22.27;95.89;100826.86;1648153;85;21075;-73
2022/06/20 00:35:13;;;;;;;15.88;11.22;;;;;;;22.27;95.86;100820.30;1650779;85;21079;-73
2022/06/20 00:37:41;;;;;;;16.80;11.05;;;;;;;22.39;95.40;100821.02;1651303;85;21066;-73
2022/06/20 00:40:35;;;;;;;17.75;12.37;;;;;;;22.31;95.62;100819.55;1644293;85;21028;-72
2022/06/20 00:43:04;;;;;;;17.48;11.95;;;;;;;22.16;96.57;100815.98;1615943;85;21047;-72
2022/06/20 00:45:36;;;;;;;18.48;11.88;;;;;;;22.13;97.07;100820.17;1646390;85;21106;-72
2022/06/20 00:48:15;;;;;;;14.40;11.08;;;;;;;22.33;96.00;100810.58;1648307;86;21090;-72
2022/06/20 00:50:46;;;;;;;16.60;11.70;;;;;;;22.34;95.06;100814.88;1637857;86;21028;-72
2022/06/20 00:53:29;;;;;;;15.72;11.28;;;;;;;22.41;95.41;100815.14;1651452;85;21117;-72
2022/06/20 00:56:02;;;;;;;16.07;11.45;;;;;;;22.40;95.60;100814.33;1641723;86;21060;-72
2022/06/20 00:58:50;;;;;;;18.90;10.70;;;;;;;22.20;96.37;100812.12;1643597;86;21508;-72
2022/06/20 01:01:21;;;;;;;14.20;10.60;;;;;;;22.07;97.13;100811.53;1647221;86;21027;-72
2022/06/20 01:03:52;;;;;;;15.58;11.28;;;;;;;22.04;96.34;100802.65;1642259;86;21103;-71
2022/06/20 01:06:33;;;;;;;15.72;10.90;;;;;;;22.03;95.71;100812.77;1641632;86;21062;-72
2022/06/20 01:09:08;;;;;;;16.25;11.50;;;;;;;21.91;95.09;100814.67;1644313;86;21106;-72
2022/06/20 01:11:49;;;;;;;18.07;10.90;;;;;;;21.83;95.97;100807.95;1643841;86;21130;-72
2022/06/20 01:14:38;;;;;;;15.20;10.38;;;;;;;21.72;95.68;100806.27;1641422;86;21137;-71
2022/06/20 01:17:16;;;;;;;16.50;11.40;;;;;;;21.72;95.15;100809.38;1644480;86;21263;-72
2022/06/20 01:20:23;;;;;;;15.85;11.30;;;;;;;21.65;95.27;100802.52;1639664;86;21079;-72
2022/06/20 01:23:35;;;;;;;18.73;12.50;;;;;;;21.80;94.35;100804.31;1640228;87;21582;-72
2022/06/20 01:26:10;;;;;;;21.02;12.53;;;;;;;21.71;95.40;100807.22;1644043;86;21024;-72
2022/06/20 01:28:45;;;;;;;18.25;12.45;;;;;;;21.60;95.41;100801.61;1642035;86;21048;-72
2022/06/20 01:31:14;;;;;;;;;;;;;;;21.54;96.19;100809.17;1646777;87;21063;-72
2022/06/20 01:33:43;;;;;;;17.50;11.30;;;;;;;21.51;95.45;100805.03;1642137;86;20201;-71
2022/06/20 01:39:01;;;;;;;16.93;11.43;;;;;;;21.37;96.56;100808.80;1641169;86;21555;-72
2022/06/20 01:44:19;;;;;;;17.10;10.55;;;;;;;21.65;93.56;100810.37;1649146;86;21488;-72
2022/06/20 01:46:47;;;;;;;15.95;10.58;;;;;;;21.65;93.25;100810.86;1650073;86;21078;-71
2022/06/20 01:49:19;;;;;;;16.07;11.28;;;;;;;21.57;93.80;100810.20;1652119;85;21603;-71
2022/06/20 01:52:10;;;;;;;17.35;10.80;;;;;;;21.44;93.73;100817.47;1645929;86;21015;-71
2022/06/20 01:54:48;;;;;;;15.53;10.95;;;;;;;21.39;93.87;100821.73;1650429;86;21165;-71
2022/06/20 01:57:18;;;;;;;17.95;11.05;;;;;;;21.37;93.64;100827.13;1647116;86;21063;-71
2022/06/20 01:59:59;;;;;;;17.17;11.48;;;;;;;21.37;93.83;100825.81;1647810;86;21039;-71
2022/06/20 02:02:29;;;;;;;15.75;10.93;;;;;;;21.44;93.59;100827.45;1653077;85;21193;-71
2022/06/20 02:04:57;;;;;;;18.62;11.33;;;;;;;21.39;93.51;100827.83;1656674;86;21502;-71
2022/06/20 02:07:25;;;;;;;14.05;11.08;;;;;;;21.44;93.63;100834.00;1654405;86;21067;-71
2022/06/20 02:09:52;;;;;;;14.47;10.48;;;;;;;21.33;93.99;100837.97;1657155;85;21098;-71
2022/06/20 02:12:21;;;;;;;16.48;11.38;;;;;;;21.39;94.51;100833.06;1659950;85;21086;-71
2022/06/20 02:14:56;;;;;;;19.27;11.30;;;;;;;21.20;94.35;100833.77;1654931;85;21051;-70
2022/06/20 02:17:28;;;;;;;16.07;10.70;;;;;;;21.12;95.48;100839.30;1641666;86;21579;-71
2022/06/20 02:19:59;;;;;;;17.57;11.30;;;;;;;21.12;95.43;100843.22;1640803;86;21059;-71
2022/06/20 02:22:26;;;;;;;19.35;11.53;;;;;;;21.09;96.39;100841.70;1641565;86;21117;-70
2022/06/20 02:24:59;;;;;;;17.15;11.65;;;;;;;21.20;95.99;100844.72;1645248;86;21082;-70
2022/06/20 02:27:40;;;;;;;17.85;11.30;;;;;;;21.48;95.05;100850.30;1646108;86;21231;-71
2022/06/20 02:30:11;;;;;;;14.63;11.33;;;;;;;21.50;93.72;100850.51;1642383;87;21047;-71
2022/06/20 02:32:50;;;;;;;19.67;11.85;;;;;;;21.56;93.42;100851.78;1645714;86;21575;-71
2022/06/20 02:35:20;;;;;;;17.35;12.05;;;;;;;21.49;93.95;100848.86;1642103;85;21107;-71
2022/06/20 02:37:49;;;;;;;24.18;12.18;;;;;;;21.69;93.03;100851.06;1644078;86;21044;-71
2022/06/20 02:40:20;;;;;;;16.93;11.93;;;;;;;21.83;92.59;100854.30;1647013;86;21516;-71
2022/06/20 02:42:56;;;;;;;17.55;12.18;;;;;;;21.81;91.88;100850.50;1645621;86;21098;-70
2022/06/20 02:45:26;;;;;;;20.25;12.20;;;;;;;21.99;91.28;100852.84;1633546;86;21095;-71
2022/06/20 02:48:00;;;;;;;19.20;11.95;;;;;;;22.02;91.23;100858.31;1641718;86;21086;-70
2022/06/20 02:50:33;;;;;;;19.87;12.30;;;;;;;21.99;91.58;100858.56;1642287;86;21182;-71
2022/06/20 02:53:14;;;;;;;16.57;11.75;;;;;;;22.12;91.13;100854.38;1641324;86;21075;-71
2022/06/20 02:55:41;;;;;;;16.90;11.40;;;;;;;22.24;90.18;100849.89;1643602;86;21094;-71
2022/06/20 02:58:23;;;;;;;15.60;11.73;;;;;;;22.37;89.64;100855.73;1643403;86;21040;-70
2022/06/20 03:01:05;;;;;;;14.60;11.50;;;;;;;22.69;87.83;100855.94;1639038;86;21528;-71
2022/06/20 03:03:39;;;;;;;17.67;12.25;;;;;;;22.60;87.90;100851.87;1638687;85;21079;-70
2022/06/20 03:06:11;;;;;;;17.55;11.93;;;;;;;22.74;87.45;100856.38;1637743;87;21062;-71
2022/06/20 03:08:38;;;;;;;18.35;12.60;;;;;;;22.83;87.21;100854.24;1641890;86;21070;-71
2022/06/20 03:11:11;;;;;;;19.40;12.43;;;;;;;22.85;87.40;100856.70;1643113;86;21142;-71
2022/06/20 03:13:41;;;;;;;15.90;12.20;;;;;;;22.72;88.37;100863.55;1640744;86;21159;-71
2022/06/20 03:16:10;;;;;;;15.40;11.78;;;;;;;22.75;87.90;100856.70;1645148;86;21043;-71
2022/06/20 03:18:41;;;;;;;15.63;12.13;;;;;;;22.82;88.23;100858.31;1643222;86;21090;-71
2022/06/20 03:21:09;;;;;;;17.32;12.75;;;;;;;23.08;86.99;100861.23;1655291;85;21086;-71
2022/06/20 03:23:38;;;;;;;20.48;12.63;;;;;;;23.14;86.27;100861.48;1641934;85;21161;-70
2022/06/20 03:26:10;;;;;;;19.20;12.18;;;;;;;22.94;87.47;100864.58;1648655;85;21117;-71
2022/06/20 03:28:38;;;;;;;17.20;12.85;;;;;;;23.01;88.71;100859.59;1649018;85;21059;-70
2022/06/20 03:31:08;;;;;;;16.90;12.53;;;;;;;23.28;87.73;100858.91;1650702;86;21161;-71
2022/06/20 03:33:36;;;;;;;19.27;12.18;;;;;;;23.26;86.88;100853.45;1648778;85;21102;-70
2022/06/20 03:36:13;;;;;;;22.05;12.85;;;;;;;23.30;87.45;100854.34;1653800;85;21110;-70
2022/06/20 03:38:44;;;;;;;25.80;13.55;;;;;;;23.41;87.71;100855.96;1642781;86;21519;-71
2022/06/20 03:41:14;;;;;;;18.70;13.13;;;;;;;23.75;85.50;100860.69;1641229;86;21516;-71
2022/06/20 03:43:46;;;;;;;18.30;13.58;;;;;;;23.86;85.12;100863.64;1645242;86;21082;-71
2022/06/20 03:46:21;;;;;;;19.23;12.98;;;;;;;24.04;84.52;100858.44;1647771;85;21591;-71
2022/06/20 03:48:59;;;;;;;18.42;12.33;;;;;;;23.87;85.56;100860.05;1651210;85;21551;-71
2022/06/20 03:51:32;;;;;;;20.50;12.98;;;;;;;23.77;86.52;100858.28;1645518;86;21031;-71
2022/06/20 03:54:14;;;;;;;23.57;12.95;;;;;;;23.92;87.47;100848.59;1647076;85;21749;-71
2022/06/20 03:57:01;;;;;;;19.67;12.90;;;;;;;24.02;87.53;100845.92;1652079;85;21117;-70
2022/06/20 03:59:36;;;;;;;19.35;13.00;;;;;;;24.11;87.69;100843.23;1647821;85;21511;-71
2022/06/20 04:02:18;;;;;;;18.50;13.58;;;;;;;24.45;86.63;100836.00;1649158;85;21579;-71
2022/06/20 04:05:08;;;;;;;18.60;12.98;;;;;;;24.64;86.19;100840.83;1646744;86;21075;-71
2022/06/20 04:08:03;;;;;;;19.80;13.90;;;;;;;24.86;85.64;100842.98;1645993;85;21110;-71
2022/06/20 04:13:44;;;;;;;18.92;13.40;;;;;;;25.08;85.09;100837.72;1647180;85;21627;-70
2022/06/20 04:16:43;;;;;;;18.85;13.32;;;;;;;25.28;84.87;100839.66;1650428;85;21157;-70
2022/06/20 04:19:25;;;;;;;23.50;13.53;;;;;;;25.31;84.87;100839.37;1651830;85;21579;-71
2022/06/20 04:22:00;;;;;;;18.32;13.55;;;;;;;25.38;84.70;100836.92;1650768;86;21122;-71
2022/06/20 04:24:36;;;;;;;19.17;13.43;;;;;;;25.55;84.68;100833.41;1650555;86;21102;-71
2022/06/20 04:27:18;;;;;;;20.35;13.28;;;;;;;25.70;83.62;100833.63;1649214;85;21055;-71
2022/06/20 04:29:53;;;;;;;20.20;14.10;;;;;;;25.86;83.48;100830.73;1650418;85;21094;-71
2022/06/20 04:32:40;;;;;;;24.60;16.50;;;;;;;26.08;82.39;100839.40;1650049;86;21115;-71
2022/06/20 04:35:15;;;;;;;28.27;19.90;;;;;;;26.11;79.88;100830.33;1652005;85;21039;-71
2022/06/20 04:38:08;;;;;;;35.00;24.18;;;;;;;26.27;79.26;100834.81;1653316;85;21016;-71
2022/06/20 04:40:41;;;;;;;32.42;21.48;;;;;;;26.46;78.19;100831.03;1642048;87;21059;-71
2022/06/20 04:43:19;;;;;;;41.10;26.87;;;;;;;26.76;77.60;100829.13;1650152;85;21118;-71
2022/06/20 04:45:59;;;;;;;39.78;26.17;;;;;;;26.89;75.63;100825.97;1648856;86;21051;-71
2022/06/20 04:48:27;;;;;;;41.18;27.15;;;;;;;27.07;75.73;100827.11;1646997;86;21547;-71
2022/06/20 04:51:00;;;;;;;41.18;27.22;;;;;;;27.20;74.42;100837.65;1650825;86;21028;-71
2022/06/20 04:53:31;;;;;;;40.08;24.72;;;;;;;27.28;74.66;100835.02;1650692;85;21105;-71
2022/06/20 04:56:05;;;;;;;33.85;20.75;;;;;;;27.42;75.01;100834.31;1651580;85;21098;-72
2022/06/20 04:58:40;;;;;;;33.38;21.12;;;;;;;27.64;75.63;100829.29;1651999;85;21086;-72
2022/06/20 05:01:09;;;;;;;34.65;21.97;;;;;;;27.65;75.26;100831.74;1625673;86;21078;-72
2022/06/20 05:03:45;;;;;;;58.15;35.13;;;;;;;27.89;74.74;100828.20;1644046;85;21079;-72
2022/06/20 05:06:20;;;;;;;83.17;47.17;;;;;;;28.23;74.43;100834.14;1652102;85;21110;-72
2022/06/20 05:08:55;;;;;;;60.05;36.60;;;;;;;28.58;73.15;100827.45;1643202;86;21055;-71
2022/06/20 05:11:27;;;;;;;43.28;27.37;;;;;;;28.69;72.66;100831.48;1642944;86;21055;-72
2022/06/20 05:14:16;;;;;;;44.90;27.25;;;;;;;28.87;71.96;100835.95;1644216;86;21133;-72
2022/06/20 05:16:48;;;;;;;49.40;26.25;;;;;;;28.94;71.92;100836.08;1654366;86;21106;-72
2022/06/20 05:19:23;;;;;;;38.48;24.65;;;;;;;29.20;71.54;100832.19;1656014;85;21114;-72
2022/06/20 05:21:55;;;;;;;33.88;20.68;;;;;;;29.26;71.25;100830.98;1646323;85;21124;-72
2022/06/20 05:24:27;;;;;;;27.27;17.42;;;;;;;29.32;70.74;100834.70;1650999;85;21574;-71
2022/06/20 05:26:56;;;;;;;24.02;15.85;;;;;;;29.46;71.14;100835.72;1650102;85;21063;-72
2022/06/20 05:29:31;;;;;;;31.23;18.48;;;;;;;29.63;70.03;100834.52;1647098;86;22239;-72
2022/06/20 05:32:03;;;;;;;20.70;14.03;;;;;;;29.82;69.04;100831.00;1650926;85;21074;-71
2022/06/20 05:34:56;;;;;;;23.18;14.68;;;;;;;30.00;68.97;100828.75;1658379;85;21105;-72
2022/06/20 05:37:40;;;;;;;26.25;17.00;;;;;;;30.19;67.61;100829.14;1657447;85;21062;-72
2022/06/20 05:40:18;;;;;;;20.45;14.85;;;;;;;30.15;67.14;100828.70;1622207;86;21133;-72
2022/06/20 05:42:45;;;;;;;23.92;15.95;;;;;;;30.34;66.81;100828.62;1641871;86;21099;-72
2022/06/20 05:45:18;;;;;;;19.75;12.93;;;;;;;30.78;65.46;100825.41;1652454;86;21030;-72
2022/06/20 05:47:55;;;;;;;21.15;13.55;;;;;;;30.94;65.58;100825.98;1653705;85;21039;-71
2022/06/20 05:50:48;;;;;;;22.15;13.68;;;;;;;31.11;64.57;100825.68;1655245;85;21010;-72
2022/06/20 05:53:27;;;;;;;19.10;12.90;;;;;;;31.28;64.42;100829.65;1651753;85;21087;-71
2022/06/20 05:55:58;;;;;;;16.05;11.30;;;;;;;31.44;63.53;100826.36;1655105;85;21149;-71
2022/06/20 05:58:30;;;;;;;20.12;11.80;;;;;;;31.57;62.20;100825.62;1639197;86;21059;-72
2022/06/20 06:01:03;;;;;;;;;;;;;;;31.54;61.47;100819.68;1640907;87;21146;-72
2022/06/20 06:03:38;;;;;;;17.42;9.10;;;;;;;31.73;59.89;100814.62;1643010;86;20106;-72
2022/06/20 06:06:17;;;;;;;16.82;10.00;;;;;;;31.73;59.89;100814.62;1644014;86;21044;-73
2022/06/20 06:09:05;;;;;;;18.50;10.00;;;;;;;31.97;60.51;100815.12;1648876;85;21039;-72
2022/06/20 06:11:41;;;;;;;11.22;9.08;;;;;;;32.07;59.37;100804.41;1647857;85;21071;-72
2022/06/20 06:14:38;;;;;;;15.65;10.63;;;;;;;31.72;59.42;100806.34;1647522;86;21046;-72
2022/06/20 06:17:29;;;;;;;13.98;10.60;;;;;;;31.70;60.17;100803.88;1654060;85;21535;-72
2022/06/20 06:20:13;;;;;;;12.25;9.68;;;;;;;32.01;59.51;100795.89;1645988;86;21050;-72
2022/06/20 06:22:44;;;;;;;12.35;7.97;;;;;;;32.19;57.99;100793.98;1649942;85;21090;-72
2022/06/20 06:25:30;;;;;;;13.70;7.92;;;;;;;32.19;57.43;100793.98;1648753;86;21531;-72
2022/06/20 06:28:20;;;;;;;12.73;8.20;;;;;;;32.43;57.25;100795.23;1650863;85;21109;-72
2022/06/20 06:31:08;;;;;;;10.65;7.67;;;;;;;32.33;56.27;100792.16;1647029;85;21055;-72
2022/06/20 06:33:49;;;;;;;10.85;8.28;;;;;;;32.41;56.23;100791.95;1648167;86;21058;-72
2022/06/20 06:36:30;;;;;;;12.78;9.18;;;;;;;32.84;55.98;100783.53;1664325;84;21109;-72
2022/06/20 06:39:25;;;;;;;12.63;8.55;;;;;;;32.68;55.97;100777.30;1688959;84;21043;-72
2022/06/20 06:42:01;;;;;;;7.90;6.08;;;;;;;32.76;56.58;100782.41;1688200;83;21094;-73
2022/06/20 06:44:38;;;;;;;7.92;5.45;;;;;;;32.71;53.35;100777.71;1692897;84;21031;-73
2022/06/20 06:47:19;;;;;;;8.63;7.35;;;;;;;32.70;52.14;100769.91;1691994;84;21078;-72
2022/06/20 06:49:50;;;;;;;10.80;7.55;;;;;;;32.95;52.56;100762.09;1693142;84;21036;-72
2022/06/20 06:52:25;;;;;;;7.28;5.37;;;;;;;32.96;51.85;100766.91;1687056;84;21519;-72
2022/06/20 06:55:25;;;;;;;5.92;4.70;;;;;;;33.14;49.31;100764.41;1686874;84;21048;-73
2022/06/20 06:58:11;;;;;;;8.18;4.35;;;;;;;33.33;48.58;100762.20;1690223;84;21086;-73
2022/06/20 07:00:47;;;;;;;5.80;5.10;;;;;;;33.48;48.76;100761.10;1687862;84;21150;-73
2022/06/20 07:03:22;;;;;;;9.95;6.17;;;;;;;33.62;49.13;100760.52;1692147;84;21601;-72
2022/06/20 07:06:00;;;;;;;7.75;5.97;;;;;;;33.63;49.18;100754.97;1691091;84;21559;-71
2022/06/20 07:08:32;;;;;;;6.55;4.75;;;;;;;33.64;48.48;100753.11;1688772;84;21044;-72
2022/06/20 07:11:21;;;;;;;8.40;6.25;;;;;;;33.55;45.92;100751.19;1684014;83;21579;-72
2022/06/20 07:13:57;;;;;;;6.05;5.28;;;;;;;33.72;47.71;100747.03;1689076;84;20999;-72
2022/06/20 07:16:29;;;;;;;3.58;3.12;;;;;;;33.66;47.26;100749.22;1690781;84;21539;-71
2022/06/20 07:18:59;;;;;;;6.15;3.45;;;;;;;33.69;43.68;100744.77;1687545;84;21611;-72
2022/06/20 07:21:29;;;;;;;6.67;3.60;;;;;;;33.88;44.87;100743.03;1689115;84;21142;-72
2022/06/20 07:24:08;;;;;;;5.12;3.90;;;;;;;33.88;44.68;100739.52;1660454;84;21062;-72
2022/06/20 07:26:44;;;;;;;3.95;3.08;;;;;;;33.93;44.51;100734.36;1688986;84;21088;-71
2022/06/20 07:29:23;;;;;;;4.28;3.35;;;;;;;33.99;42.46;100737.50;1690302;84;21070;-71
2022/06/20 07:31:56;;;;;;;4.92;3.00;;;;;;;34.21;40.58;100731.30;1629254;84;21087;-72
2022/06/20 07:34:35;;;;;;;4.15;2.85;;;;;;;34.01;39.67;100731.94;1693511;84;20984;-72
2022/06/20 07:37:28;;;;;;;2.90;2.70;;;;;;;33.95;39.31;100732.81;1692233;83;21107;-72
2022/06/20 07:40:14;;;;;;;3.77;2.70;;;;;;;34.37;40.87;100727.75;1692583;83;21059;-72
2022/06/20 07:43:05;;;;;;;3.85;3.55;;;;;;;34.63;41.82;100733.36;1649353;85;21064;-72
2022/06/20 07:45:42;;;;;;;4.58;3.35;;;;;;;34.74;41.34;100724.64;1661045;84;21083;-71
2022/06/20 07:48:30;;;;;;;4.60;3.35;;;;;;;34.61;40.73;100720.73;1661421;84;21098;-71
2022/06/20 07:51:25;;;;;;;3.40;3.10;;;;;;;34.73;42.20;100714.97;1670374;85;21059;-72
2022/06/20 07:54:00;;;;;;;3.47;3.17;;;;;;;34.80;42.55;100708.23;1679334;85;21056;-71
2022/06/20 07:56:39;;;;;;;5.37;2.87;;;;;;;34.79;41.72;100709.27;1679694;85;21079;-71
2022/06/20 07:59:20;;;;;;;3.95;3.02;;;;;;;34.73;41.92;100700.27;1662714;85;21048;-71
2022/06/20 08:02:19;;;;;;;4.30;2.77;;;;;;;34.72;39.04;100699.98;1685609;84;21044;-72
2022/06/20 08:04:50;;;;;;;3.17;2.87;;;;;;;34.89;39.39;100692.97;1664966;84;21087;-72
2022/06/20 08:07:42;;;;;;;5.05;2.50;;;;;;;34.83;39.99;100690.39;1687959;83;21110;-71
2022/06/20 08:10:43;;;;;;;3.72;3.10;;;;;;;34.83;40.97;100688.52;1686293;83;21055;-72
2022/06/20 08:13:31;;;;;;;4.22;2.90;;;;;;;34.88;41.28;100673.16;1648976;86;21067;-72
2022/06/20 08:16:08;;;;;;;5.40;3.10;;;;;;;34.96;39.67;100676.02;1655547;85;21060;-72
2022/06/20 08:18:36;;;;;;;5.37;2.95;;;;;;;35.03;38.83;100675.44;1658628;86;21043;-72
2022/06/20 08:21:11;;;;;;;5.15;3.00;;;;;;;35.14;38.60;100665.32;1664510;85;21123;-72
2022/06/20 08:23:47;;;;;;;4.55;3.20;;;;;;;35.05;38.24;100670.14;1663813;85;21169;-71
2022/06/20 08:26:19;;;;;;;4.40;3.58;;;;;;;35.10;39.06;100668.96;1667781;86;21098;-71
2022/06/20 08:28:59;;;;;;;3.60;2.80;;;;;;;35.22;40.52;100661.02;1659177;85;21096;-72
2022/06/20 08:31:37;;;;;;;4.12;3.08;;;;;;;35.23;38.88;100664.50;1662110;85;21127;-72
2022/06/20 08:34:22;;;;;;;4.00;2.90;;;;;;;35.39;39.92;100655.82;1661873;85;21032;-71
2022/06/20 08:37:19;;;;;;;3.98;2.40;;;;;;;35.19;39.30;100656.63;1664495;85;21079;-72
2022/06/20 08:40:01;;;;;;;3.72;2.80;;;;;;;35.23;37.99;100650.59;1663517;85;21092;-72
2022/06/20 08:42:58;;;;;;;5.30;2.90;;;;;;;35.13;36.80;100646.81;1663360;85;21055;-72
2022/06/20 08:45:47;;;;;;;5.60;2.87;;;;;;;35.28;37.94;100643.20;1639624;86;21050;-71
2022/06/20 08:48:49;;;;;;;3.52;2.77;;;;;;;35.38;37.60;100646.67;1666914;85;21087;-71
2022/06/20 08:51:28;;;;;;;3.12;2.80;;;;;;;35.48;38.07;100646.94;1660743;85;21052;-72
2022/06/20 08:54:31;;;;;;;3.37;3.08;;;;;;;35.39;37.09;100637.62;1661172;85;21793;-72
2022/06/20 08:57:03;;;;;;;3.27;2.98;;;;;;;35.27;36.51;100632.23;1658207;85;21044;-73
2022/06/20 08:59:57;;;;;;;3.42;3.12;;;;;;;35.24;36.66;100618.79;1659314;85;21087;-73
2022/06/20 09:03:00;;;;;;;4.03;3.33;;;;;;;35.28;37.38;100624.47;1658392;85;21071;-72
2022/06/20 09:06:09;;;;;;;3.10;2.80;;;;;;;35.38;37.93;100614.55;1660179;84;21055;-73
2022/06/20 09:09:03;;;;;;;7.17;2.90;;;;;;;35.35;37.30;100613.16;1666142;85;21134;-72
2022/06/20 09:11:52;;;;;;;3.70;3.17;;;;;;;35.74;38.35;100604.22;1657159;85;21142;-72
2022/06/20 09:14:58;;;;;;;4.60;3.30;;;;;;;35.85;37.23;100599.41;1660779;85;21063;-72
2022/06/20 09:17:55;;;;;;;5.05;3.40;;;;;;;35.72;38.05;100603.63;1663501;85;21114;-73
2022/06/20 09:20:50;;;;;;;3.60;2.87;;;;;;;35.73;38.38;100607.96;1656544;85;21044;-71
2022/06/20 09:23:25;;;;;;;3.45;3.02;;;;;;;35.80;37.72;100598.46;1666360;85;21071;-71
2022/06/20 09:26:29;;;;;;;2.77;2.50;;;;;;;35.78;38.25;100603.23;1664685;85;21138;-72
2022/06/20 09:29:23;;;;;;;3.30;2.95;;;;;;;35.72;36.30;100597.47;1662018;85;21056;-72
2022/06/20 09:32:22;;;;;;;6.70;3.02;;;;;;;35.87;38.32;100593.79;1658320;85;21934;-72
2022/06/20 09:35:01;;;;;;;5.78;3.00;;;;;;;35.72;36.98;100589.44;1660095;85;21568;-72
2022/06/20 09:37:42;;;;;;;2.80;2.60;;;;;;;35.93;37.04;100588.87;1634499;86;21049;-72
2022/06/20 09:40:27;;;;;;;6.08;2.80;;;;;;;35.92;36.21;100581.05;1663603;85;21055;-70
2022/06/20 09:43:08;;;;;;;4.67;2.85;;;;;;;35.95;35.79;100574.71;1665095;85;21098;-71
2022/06/20 09:46:04;;;;;;;3.58;2.40;;;;;;;35.89;36.74;100583.69;1659947;86;21138;-71
2022/06/20 09:48:40;;;;;;;4.37;2.65;;;;;;;35.87;36.52;100577.22;1662043;85;21158;-71
2022/06/20 09:51:24;;;;;;;5.40;3.10;;;;;;;36.23;36.38;100572.64;1661299;85;21395;-72
2022/06/20 09:54:13;;;;;;;5.95;2.52;;;;;;;36.45;37.24;100572.81;1663209;85;21576;-71
2022/06/20 09:57:10;;;;;;;4.35;2.60;;;;;;;36.22;36.86;100573.70;1658888;85;21040;-72
2022/06/20 10:00:07;;;;;;;3.72;2.42;;;;;;;36.54;35.59;100569.76;1683849;83;21044;-72
2022/06/20 10:03:13;;;;;;;5.65;2.67;;;;;;;36.65;35.34;100567.61;1687374;84;21555;-72
2022/06/20 10:05:51;;;;;;;2.72;2.40;;;;;;;36.61;34.11;100562.40;1688607;83;21103;-71
2022/06/20 10:08:59;;;;;;;3.42;2.15;;;;;;;36.43;35.60;100548.64;1641551;83;21080;-72
2022/06/20 10:11:47;;;;;;;3.55;2.60;;;;;;;36.62;36.01;100552.78;1671433;84;21007;-71
2022/06/20 10:14:36;;;;;;;3.45;2.80;;;;;;;36.48;34.67;100548.22;1677200;84;21036;-70
2022/06/20 10:17:35;;;;;;;2.80;2.50;;;;;;;36.92;35.14;100537.50;1670840;83;21062;-69
2022/06/20 10:20:26;;;;;;;3.15;2.50;;;;;;;37.01;35.99;100534.72;1656674;84;21040;-70
2022/06/20 10:23:35;;;;;;;3.22;2.37;;;;;;;37.29;35.54;100531.98;1643033;83;21823;-69
2022/06/20 10:26:29;;;;;;;3.75;2.80;;;;;;;37.19;37.67;100529.14;1667448;84;21085;-70
2022/06/20 10:29:10;;;;;;;2.77;2.35;;;;;;;37.08;37.33;100525.97;1662011;83;21122;-70
2022/06/20 10:31:49;;;;;;;2.62;2.20;;;;;;;37.19;37.36;100517.57;1678544;83;21058;-70
2022/06/20 10:34:39;;;;;;;3.70;2.67;;;;;;;37.44;36.99;100523.88;1658868;83;21008;-70
2022/06/20 10:37:33;;;;;;;2.60;2.40;;;;;;;37.37;37.42;100514.66;1668649;85;21578;-70
2022/06/20 10:40:22;;;;;;;2.70;2.50;;;;;;;37.40;36.88;100518.72;1664134;85;21583;-70
2022/06/20 10:42:54;;;;;;;2.75;2.55;;;;;;;37.40;36.29;100515.50;1653034;85;21082;-70
2022/06/20 10:45:38;;;;;;;3.07;2.40;;;;;;;37.54;35.19;100507.91;1576344;87;21203;-69
2022/06/20 10:48:34;;;;;;;3.00;2.58;;;;;;;37.42;34.47;100505.32;1646704;85;21103;-70
2022/06/20 10:51:18;;;;;;;4.55;2.42;;;;;;;37.03;35.96;100505.77;1646479;85;21083;-72
2022/06/20 10:54:12;;;;;;;5.45;2.45;;;;;;;37.17;35.22;100501.73;1649386;85;21071;-71
2022/06/20 10:57:08;;;;;;;4.83;2.30;;;;;;;37.22;33.35;100501.80;1648841;85;21089;-72
2022/06/20 10:59:53;;;;;;;3.37;2.70;;;;;;;36.75;33.81;100502.61;1646833;86;21078;-73
2022/06/20 11:02:34;;;;;;;3.72;2.50;;;;;;;37.07;34.45;100497.52;1654965;85;21103;-72
2022/06/20 11:05:25;;;;;;;2.65;2.45;;;;;;;37.17;35.29;100508.45;1642132;86;21090;-73
2022/06/20 11:08:06;;;;;;;2.62;2.42;;;;;;;37.47;34.24;100492.49;1652477;85;21173;-72
2022/06/20 11:11:00;;;;;;;3.75;2.42;;;;;;;37.59;35.46;100488.39;1644579;86;21067;-72
2022/06/20 11:13:48;;;;;;;2.80;2.55;;;;;;;37.94;34.98;100489.41;1645928;85;21133;-72
2022/06/20 11:16:33;;;;;;;3.20;2.50;;;;;;;38.07;34.41;100489.04;1639969;86;21067;-72
2022/06/20 11:19:20;;;;;;;3.30;2.42;;;;;;;38.26;35.30;100487.36;1640336;86;21539;-73
2022/06/20 11:22:20;;;;;;;4.15;2.20;;;;;;;38.09;32.52;100490.14;1638207;86;21082;-72
2022/06/20 11:25:02;;;;;;;3.40;2.72;;;;;;;37.94;33.07;100486.72;1637531;86;21086;-72
2022/06/20 11:27:53;;;;;;;3.35;2.30;;;;;;;38.05;32.19;100484.45;1640201;86;21551;-73
2022/06/20 11:30:58;;;;;;;3.33;2.58;;;;;;;38.09;33.45;100476.70;1650835;85;21019;-72
2022/06/20 11:34:10;;;;;;;2.80;2.45;;;;;;;38.18;33.20;100475.20;1648199;85;21554;-72
2022/06/20 11:37:20;;;;;;;2.52;2.20;;;;;;;38.41;32.64;100473.28;1649883;85;21145;-72
2022/06/20 11:39:57;;;;;;;2.60;2.40;;;;;;;38.52;33.45;100469.64;1647831;86;21035;-72
2022/06/20 11:42:59;;;;;;;4.60;2.70;;;;;;;38.18;33.34;100468.48;1639021;86;21027;-72
2022/06/20 11:45:53;;;;;;;4.92;2.35;;;;;;;38.27;33.05;100462.11;1644767;86;21516;-72
2022/06/20 11:48:43;;;;;;;3.47;2.62;;;;;;;38.17;33.32;100470.87;1646153;87;21074;-72
2022/06/20 11:51:33;;;;;;;5.15;2.72;;;;;;;38.44;33.71;100459.31;1648243;86;21114;-72
2022/06/20 11:54:14;;;;;;;4.30;2.55;;;;;;;38.51;33.27;100459.09;1645484;86;21011;-72
2022/06/20 11:57:05;;;;;;;2.55;2.35;;;;;;;38.32;32.17;100458.12;1653039;86;21039;-72
2022/06/20 11:59:47;;;;;;;5.65;2.60;;;;;;;38.52;32.59;100450.01;1628043;86;21558;-72
2022/06/20 12:02:22;;;;;;;4.33;2.50;;;;;;;38.25;32.38;100452.14;1649888;85;21165;-72
2022/06/20 12:05:05;;;;;;;2.67;2.37;;;;;;;38.66;33.84;100451.21;1644035;86;21121;-72
2022/06/20 12:07:40;;;;;;;4.42;2.40;;;;;;;38.70;32.98;100444.80;1638820;86;21083;-72
2022/06/20 12:10:37;;;;;;;4.58;2.15;;;;;;;38.76;33.72;100443.22;1642933;86;21044;-72
2022/06/20 12:13:30;;;;;;;4.22;2.20;;;;;;;38.97;33.78;100440.71;1643026;86;21046;-72
2022/06/20 12:16:27;;;;;;;4.17;2.08;;;;;;;39.08;32.99;100428.16;1652130;86;21698;-72
2022/06/20 12:24:51;;;;;;;4.72;2.60;;;;;;;38.83;33.16;100414.74;1649252;85;21079;-72
2022/06/20 12:27:20;;;;;;;3.65;2.22;;;;;;;39.23;32.43;100408.84;1651069;85;21629;-72
2022/06/20 12:29:49;;;;;;;3.33;2.20;;;;;;;39.08;33.02;100412.00;1647236;85;21059;-72
2022/06/20 12:32:27;;;;;;;3.95;2.20;;;;;;;39.27;32.06;100408.59;1641045;86;21031;-73